Harborside, ME (04642)

4:39 AM EDT on October 24, 2014 (GMT -0400)
Harborside | Change Station
CLOSE
Current Station
Personal Weather Station
Location: Brooksville, ME
Elevation: 12 ft
Nearby Weather Stations
Active Advisory: Areal Flood Advisory Active Notice: Record Report

Elev 12 ft 44.35 °N, 68.82 °W | Updated 4 seconds ago

Overcast
Overcast
49.8 °F
Feels Like 45 °F
N
13.0
Wind Variable Wind from North
Gusts 17.0 mph

Today
High -- | Low -- °F
--% Chance of Precip.
Yesterday
High -- | Low -- °F
Precip. -- in
7:01 AM 5:36 PM
New Moon, 0% visible
Pressure 29.64 in
Visibility 10.0 miles
Clouds Overcast 1100 ft
Windchill 45 °F
Dew Point 48 °F
Humidity 94%
Rainfall 0.36 in
Snow Depth Not available.
UV 0.0 out of 12
Pollen .10 out of 12
Ozone Good
Flu Activity Sporadic
METAR KBHB 240835Z AUTO 01010G15KT 10SM OVC011 10/10 A2964 RMK AO1

More Conditions Fewer Conditions

Pressure 29.64 in
Visibility 10.0 miles
Clouds Overcast 1100 ft
Windchill 45 °F
Dew Point 48 °F
Humidity 94%
Rainfall 0.36 in
Snow Depth Not available.
UV 0.0 out of 12
Pollen .10 out of 12
Ozone Good
Flu Activity Sporadic
METAR KBHB 240835Z AUTO 01010G15KT 10SM OVC011 10/10 A2964 RMK AO1

More Conditions Fewer Conditions

10-Day Weather Forecast

Almanac

Astronomy

Oct. 24, 2014 Rise Set
Actual Time 7:01 AM EDT 5:36 PM EDT
Civil Twilight 6:31 AM EDT 6:06 PM EDT
Nautical Twilight 5:58 AM EDT 6:39 PM EDT
Astronomical Twilight 5:24 AM EDT 7:13 PM EDT
Moon 7:38 AM EDT 6:12 PM EDT
Length of Visible Light 11h 34m
Length of Day
10h 34m
Tomorrow will be 2m 52s shorter.
New Moon, 0% of the Moon is Illuminated
Today
New Moon
Oct 30
First Quarter
Nov 6
Full
Nov 14
Last Quarter
Nov 22
New

Today's Extremes

State Highs State Lows

Community

WunderPhotos

Upload Photos

1,764,511 photos uploaded!

WunderBlogs® & News

Nearby

Air Quality

  Air Quality AQ Index Pollutant
Yesterday Good
OZONE
Yesterday Good
PM2.5
Current Good
OZONE
Friday Good
OZONE
Friday Good
PM2.5
Saturday Good
OZONE
Saturday Good
PM2.5

Snow Depth

Station Depth Elevation
No new snow has been reported.

Earthquake Activity

City Distance Mag. Time & Date
No recent earthquake activity has been reported nearby.
Minimum magnitude displayed is 2.5.

Coastal Water Temperatures

Place Temperature
Bar Harbor, ME 54.0 °F
Portland, ME 54.0 °F

Nearby Weather Stations